Terminal Aerodrome Forecast
Issued by NWS

Home | Current Version | Previous Version | Graphics & Text | Print | Product List | Glossary On
Versions: 1 2 3 4 5 6 7 8 9 10 11 12 13 14 15 16
069
FTUS43 KICT 150531
TAFSLN
TAF
KSLN 150531Z 1506/1606 35006KT P6SM -RASN OVC050
     FM150700 30012G24KT 4SM -SN SCT012 OVC025
      TEMPO 1507/1510 1SM -SN BR BKN012
     FM151300 36015G23KT P6SM VCSH OVC050
     FM151500 34019G28KT P6SM BKN120=

USA.gov is the U.S. government's official web portal to all federal, state and local government web resources and services.